createdAt,value
2023-03-24T00:03:02.512Z,98127.72
2023-03-24T00:08:08.271Z,98123.38
2023-03-24T00:13:11.191Z,98112.03
2023-03-24T00:18:14.149Z,98102.63
2023-03-24T00:23:19.257Z,98101.91
2023-03-24T00:28:22.481Z,98095.31
2023-03-24T00:33:25.465Z,98088.28
2023-03-24T00:38:30.108Z,98085.97
2023-03-24T00:43:33.489Z,98087.25
2023-03-24T00:48:38.262Z,98070.38
2023-03-24T00:53:43.706Z,98077.66
2023-03-24T00:58:46.698Z,98067.41
2023-03-24T01:03:50.821Z,98059.50
2023-03-24T01:08:56.058Z,98052.53
2023-03-24T01:13:59.080Z,98050.66
2023-03-24T01:19:02.054Z,98047.13
2023-03-24T01:24:07.815Z,98041.66
2023-03-24T01:29:11.417Z,98043.78
2023-03-24T01:34:14.358Z,98036.94
2023-03-24T01:39:18.703Z,98030.69
2023-03-24T01:44:27.398Z,98029.59
2023-03-24T01:49:34.449Z,98021.53
2023-03-24T01:54:43.027Z,98021.31
2023-03-24T01:59:50.715Z,98011.75
2023-03-24T02:05:15.776Z,98008.56
2023-03-24T02:10:24.511Z,98012.75
2023-03-24T02:15:31.232Z,98009.63
2023-03-24T02:21:21.871Z,98005.69
2023-03-24T02:26:45.396Z,98009.56
2023-03-24T02:32:09.267Z,98002.50
2023-03-24T02:37:47.758Z,97992.91
2023-03-24T02:43:06.898Z,97986.63
2023-03-24T02:48:24.488Z,97981.97
2023-03-24T02:53:34.044Z,97976.06
2023-03-24T02:59:20.648Z,97971.06
2023-03-24T03:04:34.006Z,97968.00
2023-03-24T03:09:41.129Z,97967.50
2023-03-24T03:14:50.370Z,97970.63
2023-03-24T03:19:59.301Z,97969.19
2023-03-24T03:25:05.208Z,97977.75
2023-03-24T03:30:15.120Z,97976.06
2023-03-24T03:35:23.659Z,97954.25
2023-03-24T03:40:32.246Z,97943.72
2023-03-24T03:45:44.888Z,97915.25
2023-03-24T03:50:48.511Z,97939.72
2023-03-24T03:55:52.306Z,97936.72
2023-03-24T04:00:57.078Z,97924.78
2023-03-24T04:06:31.990Z,97923.97
2023-03-24T04:11:51.927Z,97913.41
2023-03-24T04:17:16.643Z,97928.41
2023-03-24T04:22:30.351Z,97920.44
2023-03-24T04:28:02.054Z,97916.34
2023-03-24T04:33:10.549Z,97918.47
2023-03-24T04:38:18.397Z,97913.09
2023-03-24T04:43:36.597Z,97917.31
2023-03-24T04:48:44.154Z,97902.63
2023-03-24T04:53:53.745Z,97897.09
2023-03-24T04:58:58.980Z,97896.78
2023-03-24T05:04:04.857Z,97889.97
2023-03-24T05:09:07.962Z,97876.72
2023-03-24T05:14:11.038Z,97871.56
2023-03-24T05:19:15.635Z,97867.03
2023-03-24T05:24:18.855Z,97862.72
2023-03-24T05:29:21.853Z,97863.50
2023-03-24T05:34:26.841Z,97851.91
2023-03-24T05:39:41.110Z,97845.38
2023-03-24T05:44:53.336Z,97831.56
2023-03-24T05:50:03.817Z,97831.88
2023-03-24T05:55:09.504Z,97823.63
2023-03-24T06:00:17.838Z,97833.34
2023-03-24T06:05:30.972Z,97820.47
2023-03-24T06:10:36.876Z,97814.41
2023-03-24T06:15:42.855Z,97796.00
2023-03-24T06:21:05.948Z,97777.31
2023-03-24T06:26:12.507Z,97780.50
2023-03-24T06:31:37.323Z,97781.56
2023-03-24T06:36:41.994Z,97772.03
2023-03-24T06:41:45.654Z,97764.63
2023-03-24T06:46:48.889Z,97775.44
2023-03-24T06:51:54.276Z,97789.91
2023-03-24T06:56:58.927Z,97785.44
2023-03-24T07:02:12.531Z,97786.75
2023-03-24T07:08:02.913Z,97775.38
2023-03-24T07:13:07.034Z,97780.84
2023-03-24T07:18:13.129Z,97786.03
2023-03-24T07:23:20.873Z,97779.72
2023-03-24T07:28:35.738Z,97779.72
2023-03-24T07:33:39.545Z,97775.34
2023-03-24T07:38:43.949Z,97779.19
2023-03-24T07:43:52.893Z,97768.38
2023-03-24T07:49:11.827Z,97779.34
2023-03-24T07:54:27.321Z,97771.38
2023-03-24T07:59:31.736Z,97774.19
2023-03-24T08:04:42.973Z,97767.97
2023-03-24T08:09:55.917Z,97766.47
2023-03-24T08:14:58.808Z,97782.81
2023-03-24T08:20:03.384Z,97786.66
2023-03-24T08:25:11.558Z,97781.19
2023-03-24T08:30:17.278Z,97787.00
2023-03-24T08:35:23.632Z,97787.72
2023-03-24T08:40:29.858Z,97789.56
2023-03-24T08:45:33.588Z,97796.78
2023-03-24T08:50:38.827Z,97800.25
2023-03-24T08:55:45.410Z,97788.84
2023-03-24T09:00:49.402Z,97776.56
2023-03-24T09:05:52.404Z,97774.00
2023-03-24T09:10:56.642Z,97776.81
2023-03-24T09:16:01.534Z,97779.28
2023-03-24T09:21:04.694Z,97791.03
2023-03-24T09:26:09.047Z,97779.28
2023-03-24T09:31:12.091Z,97787.00
2023-03-24T09:36:15.056Z,97795.59
2023-03-24T09:41:21.978Z,97803.72
2023-03-24T09:46:30.111Z,97797.97
2023-03-24T09:51:37.473Z,97805.97
2023-03-24T09:56:47.280Z,97785.47
2023-03-24T10:01:52.204Z,97803.38
2023-03-24T10:07:01.648Z,97800.66
2023-03-24T10:12:23.938Z,97794.06
2023-03-24T10:17:38.307Z,97790.94
2023-03-24T10:22:51.797Z,97800.72
2023-03-24T10:28:01.447Z,97794.16
2023-03-24T10:33:04.834Z,97792.34
2023-03-24T10:38:18.203Z,97799.59
2023-03-24T10:43:24.452Z,97786.38
2023-03-24T10:48:44.198Z,97783.34
2023-03-24T10:53:49.003Z,97770.78
2023-03-24T10:58:53.630Z,97782.69
2023-03-24T11:04:00.890Z,97796.53
2023-03-24T11:09:20.744Z,97828.16
2023-03-24T11:14:27.055Z,97828.72
2023-03-24T11:19:32.384Z,97840.59
2023-03-24T11:24:38.463Z,97843.63
2023-03-24T11:29:43.975Z,97851.22
2023-03-24T11:34:51.002Z,97844.84
2023-03-24T11:40:16.851Z,97827.66
2023-03-24T11:45:28.976Z,97816.28
2023-03-24T11:50:35.714Z,97831.38
2023-03-24T11:55:47.988Z,97826.13
2023-03-24T12:00:58.777Z,97830.19
2023-03-24T12:06:16.531Z,97803.44
2023-03-24T12:11:27.561Z,97798.41
2023-03-24T12:16:41.645Z,97782.88
2023-03-24T12:21:59.220Z,97773.09
2023-03-24T12:27:02.659Z,97787.38
2023-03-24T12:32:36.452Z,97792.78
2023-03-24T12:37:49.806Z,97798.31
2023-03-24T12:42:59.340Z,97797.22
2023-03-24T12:48:17.609Z,97797.38
2023-03-24T12:53:36.503Z,97799.88
2023-03-24T12:58:44.972Z,97777.19
2023-03-24T13:03:55.391Z,97779.91
2023-03-24T13:09:08.113Z,97773.66
2023-03-24T13:14:16.567Z,97767.28
2023-03-24T13:19:24.899Z,97769.03
2023-03-24T13:24:28.173Z,97757.22
2023-03-24T13:29:49.872Z,97761.88
2023-03-24T13:34:59.956Z,97751.41
2023-03-24T13:40:10.996Z,97740.25
2023-03-24T13:45:28.457Z,97735.59
2023-03-24T13:50:35.294Z,97742.09
2023-03-24T13:55:40.779Z,97727.84
2023-03-24T14:01:06.305Z,97763.97
2023-03-24T14:06:11.370Z,97892.50
2023-03-24T14:11:45.561Z,97900.94
2023-03-24T14:16:54.393Z,97895.75
2023-03-24T14:22:12.016Z,97895.50
2023-03-24T14:27:37.118Z,97918.16
2023-03-24T14:32:45.077Z,97909.34
2023-03-24T14:37:55.398Z,97910.75
2023-03-24T14:43:06.295Z,97911.06
2023-03-24T14:48:24.236Z,97919.28
2023-03-24T14:53:28.523Z,97915.75
2023-03-24T14:58:39.006Z,97924.66
2023-03-24T15:03:50.925Z,97932.59
2023-03-24T15:08:58.405Z,97922.88
2023-03-24T15:14:03.289Z,97926.88
2023-03-24T15:19:10.673Z,97900.78
2023-03-24T15:24:29.828Z,97914.00
2023-03-24T15:29:32.895Z,97915.75
2023-03-24T15:34:40.000Z,97891.19
2023-03-24T15:39:49.711Z,97885.81
2023-03-24T15:44:54.696Z,97851.53
2023-03-24T15:49:59.871Z,97843.19
2023-03-24T15:55:09.892Z,97843.41
2023-03-24T16:00:16.441Z,97837.97
2023-03-24T16:05:22.967Z,97834.06
2023-03-24T16:10:39.870Z,97836.75
2023-03-24T16:15:45.210Z,97832.72
2023-03-24T16:20:48.628Z,97828.81
2023-03-24T16:25:53.110Z,97834.06
2023-03-24T16:31:01.082Z,97835.06
2023-03-24T16:36:04.158Z,97836.38
2023-03-24T16:41:13.266Z,97848.31
2023-03-24T16:46:17.106Z,97854.09
2023-03-24T16:51:20.140Z,97841.91
2023-03-24T16:56:26.522Z,97831.25
2023-03-24T17:01:33.745Z,97844.38
2023-03-24T17:06:38.022Z,97854.91
2023-03-24T17:11:44.312Z,97860.75
2023-03-24T17:16:50.724Z,97863.63
2023-03-24T17:21:59.109Z,97885.38
2023-03-24T17:27:04.154Z,97875.91
2023-03-24T17:32:07.333Z,97879.59
2023-03-24T17:37:10.354Z,97879.22
2023-03-24T17:42:14.629Z,97884.31
2023-03-24T17:47:17.625Z,97884.03
2023-03-24T17:52:21.886Z,97894.69
2023-03-24T17:57:26.182Z,97900.22
2023-03-24T18:02:29.074Z,97908.72
2023-03-24T18:07:32.310Z,97909.00
2023-03-24T18:12:36.929Z,97917.03
2023-03-24T18:17:40.373Z,97911.78
2023-03-24T18:22:43.306Z,97912.88
2023-03-24T18:27:47.611Z,97914.38
2023-03-24T18:32:50.619Z,97923.13
2023-03-24T18:37:53.544Z,97936.22
2023-03-24T18:42:57.856Z,97942.72
2023-03-24T18:48:00.922Z,97942.22
2023-03-24T18:53:04.284Z,97940.66
2023-03-24T18:58:15.005Z,97944.31
2023-03-24T19:03:18.488Z,97941.47
2023-03-24T19:08:21.547Z,97954.50
2023-03-24T19:13:25.815Z,97955.81
2023-03-24T19:18:28.972Z,97958.59
2023-03-24T19:23:32.545Z,97961.31
2023-03-24T19:28:37.588Z,97962.06
2023-03-24T19:33:41.303Z,97964.44
2023-03-24T19:38:45.377Z,97978.16
2023-03-24T19:43:50.598Z,97976.34
2023-03-24T19:48:53.678Z,97971.41
2023-03-24T19:53:56.731Z,97977.59
2023-03-24T19:59:01.001Z,97973.81
2023-03-24T20:04:03.984Z,97978.91
2023-03-24T20:09:06.927Z,97973.56
2023-03-24T20:14:11.289Z,97968.25
2023-03-24T20:19:14.280Z,97981.94
2023-03-24T20:24:17.198Z,97973.81
2023-03-24T20:29:21.956Z,97975.31
2023-03-24T20:34:25.339Z,97983.09
2023-03-24T20:39:28.258Z,97982.81
2023-03-24T20:44:32.519Z,97984.09
2023-03-24T20:49:35.528Z,97970.94
2023-03-24T20:54:38.464Z,97965.53
2023-03-24T20:59:42.672Z,97961.66
2023-03-24T21:04:45.786Z,97982.66
2023-03-24T21:09:48.806Z,97987.50
2023-03-24T21:14:53.012Z,97982.38
2023-03-24T21:19:56.454Z,97980.56
2023-03-24T21:24:59.384Z,97977.13
2023-03-24T21:30:03.807Z,97969.81
2023-03-24T21:35:08.824Z,97963.16
2023-03-24T21:40:12.918Z,97956.63
2023-03-24T21:45:19.290Z,97961.41
2023-03-24T21:50:23.993Z,97976.00
2023-03-24T21:55:30.279Z,97989.19
2023-03-24T22:00:39.973Z,97991.19
2023-03-24T22:05:44.280Z,98000.81
2023-03-24T22:10:47.212Z,98007.06
2023-03-24T22:15:56.180Z,97999.06
2023-03-24T22:21:03.716Z,97990.50
2023-03-24T22:26:08.395Z,97988.88
2023-03-24T22:31:14.402Z,97980.25
2023-03-24T22:36:17.390Z,97982.22
2023-03-24T22:41:20.497Z,97985.88
2023-03-24T22:46:24.946Z,97983.66
2023-03-24T22:51:28.756Z,97975.47
2023-03-24T22:56:31.645Z,97976.25
2023-03-24T23:01:36.004Z,97965.00
2023-03-24T23:06:40.108Z,97976.03
2023-03-24T23:11:43.095Z,97972.31
2023-03-24T23:16:47.341Z,97991.25
2023-03-24T23:21:50.377Z,97984.94
2023-03-24T23:26:53.621Z,97987.41
2023-03-24T23:31:57.977Z,97982.56
2023-03-24T23:37:03.631Z,97985.41
2023-03-24T23:42:06.876Z,97980.25
2023-03-24T23:47:11.318Z,97979.69
2023-03-24T23:52:14.243Z,97989.88
2023-03-24T23:57:17.265Z,97982.13
